createdAt,value
2018-09-25T00:02:05.293Z,1.20
2018-09-25T00:04:39.741Z,1.30
2018-09-25T00:07:13.632Z,1.27
2018-09-25T00:09:48.180Z,1.50
2018-09-25T00:12:22.481Z,1.70
2018-09-25T00:14:56.897Z,1.80
2018-09-25T00:17:30.957Z,1.43
2018-09-25T00:20:05.225Z,1.67
2018-09-25T00:22:39.500Z,1.87
2018-09-25T00:25:14.221Z,1.60
2018-09-25T00:27:48.062Z,1.57
2018-09-25T00:30:21.901Z,1.40
2018-09-25T00:32:56.413Z,1.30
2018-09-25T00:35:33.310Z,1.90
2018-09-25T00:38:07.445Z,1.20
2018-09-25T00:40:41.706Z,1.20
2018-09-25T00:43:15.569Z,1.23
2018-09-25T00:45:49.822Z,1.57
2018-09-25T00:48:23.793Z,1.40
2018-09-25T00:50:58.271Z,1.90
2018-09-25T00:53:32.970Z,1.03
2018-09-25T00:56:07.208Z,1.93
2018-09-25T00:58:41.251Z,1.50
2018-09-25T01:01:15.102Z,1.00
2018-09-25T01:03:49.237Z,1.63
2018-09-25T01:06:23.214Z,1.63
2018-09-25T01:08:57.342Z,1.60
2018-09-25T01:11:31.655Z,1.40
2018-09-25T01:14:05.725Z,1.97
2018-09-25T01:16:39.871Z,1.30
2018-09-25T01:19:13.740Z,1.67
2018-09-25T01:21:48.086Z,1.60
2018-09-25T01:24:22.544Z,1.37
2018-09-25T01:26:57.029Z,1.63
2018-09-25T01:29:31.012Z,1.47
2018-09-25T01:32:05.190Z,1.73
2018-09-25T01:34:40.233Z,2.60
2018-09-25T01:37:15.031Z,1.57
2018-09-25T01:39:49.178Z,1.53
2018-09-25T01:42:23.191Z,0.87
2018-09-25T01:44:57.167Z,1.27
2018-09-25T01:47:31.070Z,1.37
2018-09-25T01:50:05.264Z,1.63
2018-09-25T01:52:39.858Z,2.20
2018-09-25T01:55:13.865Z,1.60
2018-09-25T01:57:48.300Z,1.17
2018-09-25T02:00:23.056Z,2.03
2018-09-25T02:02:57.492Z,2.17
2018-09-25T02:05:31.714Z,1.90
2018-09-25T02:08:06.178Z,1.87
2018-09-25T02:10:40.520Z,2.10
2018-09-25T02:13:14.465Z,1.67
2018-09-25T02:15:49.018Z,1.70
2018-09-25T02:18:23.266Z,1.50
2018-09-25T02:20:57.220Z,1.90
2018-09-25T02:23:31.433Z,2.00
2018-09-25T02:26:05.905Z,1.60
2018-09-25T02:28:39.708Z,1.47
2018-09-25T02:31:13.743Z,1.63
2018-09-25T02:33:47.581Z,1.50
2018-09-25T02:36:21.964Z,1.80
2018-09-25T02:38:56.157Z,1.30
2018-09-25T02:41:30.492Z,2.10
2018-09-25T02:44:04.778Z,1.63
2018-09-25T02:46:39.003Z,1.73
2018-09-25T02:49:12.976Z,2.40
2018-09-25T02:51:47.184Z,1.33
2018-09-25T02:54:21.332Z,1.70
2018-09-25T02:56:56.251Z,1.40
2018-09-25T02:59:31.297Z,2.00
2018-09-25T03:02:06.044Z,1.80
2018-09-25T03:04:41.006Z,2.00
2018-09-25T03:07:16.122Z,1.33
2018-09-25T03:09:50.160Z,1.60
2018-09-25T03:12:24.465Z,1.90
2018-09-25T03:14:58.630Z,1.50
2018-09-25T03:17:32.845Z,1.47
2018-09-25T03:20:07.101Z,1.40
2018-09-25T03:22:41.330Z,1.50
2018-09-25T03:25:15.246Z,2.00
2018-09-25T03:27:49.137Z,2.03
2018-09-25T03:30:22.985Z,2.03
2018-09-25T03:32:57.301Z,2.00
2018-09-25T03:35:31.446Z,1.50
2018-09-25T03:38:05.592Z,1.90
2018-09-25T03:40:39.654Z,1.67
2018-09-25T03:43:13.805Z,2.00
2018-09-25T03:45:47.791Z,1.40
2018-09-25T03:48:22.350Z,1.70
2018-09-25T03:50:56.282Z,1.70
2018-09-25T03:53:30.196Z,1.93
2018-09-25T03:56:04.468Z,1.97
2018-09-25T03:58:38.789Z,1.73
2018-09-25T04:01:13.249Z,1.57
2018-09-25T04:03:47.193Z,2.40
2018-09-25T04:06:21.156Z,1.30
2018-09-25T04:08:55.160Z,1.80
2018-09-25T04:11:29.069Z,1.80
2018-09-25T04:14:02.971Z,1.70
2018-09-25T04:16:37.257Z,1.73
2018-09-25T04:19:11.112Z,2.00
2018-09-25T04:21:45.149Z,2.10
2018-09-25T04:24:18.970Z,1.57
2018-09-25T04:26:53.412Z,2.17
2018-09-25T04:29:27.237Z,1.70
2018-09-25T04:32:01.207Z,1.97
2018-09-25T04:34:35.534Z,2.63
2018-09-25T04:37:09.834Z,2.33
2018-09-25T04:39:44.312Z,1.63
2018-09-25T04:42:18.407Z,1.97
2018-09-25T04:44:52.757Z,2.27
2018-09-25T04:47:26.611Z,2.63
2018-09-25T04:50:01.612Z,2.00
2018-09-25T04:52:36.631Z,2.30
2018-09-25T04:55:11.454Z,2.23
2018-09-25T04:57:45.755Z,2.67
2018-09-25T05:00:19.905Z,1.90
2018-09-25T05:02:54.426Z,1.60
2018-09-25T05:05:28.714Z,1.90
2018-09-25T05:08:02.930Z,1.73
2018-09-25T05:10:37.048Z,1.67
2018-09-25T05:13:11.195Z,2.07
2018-09-25T05:15:45.894Z,2.50
2018-09-25T05:18:19.881Z,1.90
2018-09-25T05:20:53.914Z,2.47
2018-09-25T05:23:28.281Z,1.43
2018-09-25T05:26:02.436Z,2.00
2018-09-25T05:28:36.910Z,1.80
2018-09-25T05:31:10.783Z,1.97
2018-09-25T05:33:44.781Z,2.10
2018-09-25T05:36:19.190Z,1.90
2018-09-25T05:38:54.167Z,2.10
2018-09-25T05:47:08.776Z,2.63
2018-09-25T05:49:43.155Z,3.10
2018-09-25T05:52:17.325Z,2.23
2018-09-25T05:54:51.235Z,2.00
2018-09-25T05:57:26.283Z,4.57
2018-09-25T06:00:00.218Z,3.00
2018-09-25T06:02:34.418Z,3.03
2018-09-25T06:05:08.276Z,2.93
2018-09-25T06:07:42.522Z,3.60
2018-09-25T06:10:16.287Z,2.80
2018-09-25T06:12:50.450Z,2.90
2018-09-25T06:15:24.378Z,2.33
2018-09-25T06:17:58.396Z,2.47
2018-09-25T06:20:32.589Z,1.50
2018-09-25T06:23:06.537Z,2.23
2018-09-25T06:25:40.769Z,2.10
2018-09-25T06:28:14.799Z,2.40
2018-09-25T06:30:48.807Z,2.53
2018-09-25T06:33:26.686Z,2.80
2018-09-25T06:36:00.458Z,2.73
2018-09-25T06:38:34.543Z,2.50
2018-09-25T06:41:08.755Z,2.20
2018-09-25T06:43:43.187Z,2.70
2018-09-25T06:46:17.557Z,2.40
2018-09-25T06:48:51.596Z,2.30
2018-09-25T06:51:25.470Z,2.50
2018-09-25T06:53:59.466Z,2.47
2018-09-25T06:56:33.245Z,2.00
2018-09-25T06:59:07.424Z,1.43
2018-09-25T07:01:46.413Z,2.30
2018-09-25T07:04:21.012Z,1.90
2018-09-25T07:06:55.400Z,2.10
2018-09-25T07:09:29.204Z,1.60
2018-09-25T07:12:03.141Z,2.10
2018-09-25T07:14:38.134Z,2.33
2018-09-25T07:17:13.181Z,2.10
2018-09-25T07:19:48.053Z,2.20
2018-09-25T07:22:23.289Z,2.03
2018-09-25T07:24:58.238Z,2.23
2018-09-25T07:27:32.794Z,2.57
2018-09-25T07:30:07.756Z,2.40
2018-09-25T07:32:42.156Z,1.90
2018-09-25T07:35:16.055Z,1.57
2018-09-25T07:37:50.476Z,2.07
2018-09-25T07:40:24.744Z,1.40
2018-09-25T07:42:58.818Z,1.37
2018-09-25T07:45:39.670Z,1.33
2018-09-25T07:48:13.897Z,1.30
2018-09-25T07:50:48.687Z,1.80
2018-09-25T07:53:23.017Z,1.97
2018-09-25T07:55:57.308Z,1.10
2018-09-25T07:58:31.852Z,1.67
2018-09-25T08:01:06.001Z,1.60
2018-09-25T08:03:40.089Z,1.53
2018-09-25T08:06:24.151Z,1.20
2018-09-25T08:08:58.146Z,1.30
2018-09-25T08:11:31.887Z,1.20
2018-09-25T08:14:06.090Z,1.13
2018-09-25T08:16:39.879Z,1.57
2018-09-25T08:19:14.080Z,0.80
2018-09-25T08:21:48.002Z,1.00
2018-09-25T08:24:28.279Z,0.90
2018-09-25T08:27:02.149Z,0.97
2018-09-25T08:29:36.358Z,0.80
2018-09-25T08:32:11.738Z,0.73
2018-09-25T08:34:45.963Z,1.03
2018-09-25T08:37:20.259Z,1.20
2018-09-25T08:39:54.135Z,0.90
2018-09-25T08:42:28.398Z,0.93
2018-09-25T08:45:02.317Z,0.77
2018-09-25T08:47:36.908Z,1.40
2018-09-25T08:50:10.812Z,0.60
2018-09-25T08:52:44.647Z,1.40
2018-09-25T08:55:18.534Z,1.03
2018-09-25T08:57:52.731Z,0.80
2018-09-25T09:00:27.074Z,0.57
2018-09-25T09:03:00.982Z,0.63
2018-09-25T09:05:34.986Z,1.30
2018-09-25T09:08:08.924Z,0.97
2018-09-25T09:10:43.342Z,0.90
2018-09-25T09:13:17.367Z,1.33
2018-09-25T09:15:51.765Z,1.10
2018-09-25T09:18:25.861Z,0.73
2018-09-25T09:20:59.691Z,0.97
2018-09-25T09:23:34.400Z,0.80
2018-09-25T09:26:08.556Z,0.80
2018-09-25T09:28:42.691Z,0.80
2018-09-25T09:31:16.589Z,0.90
2018-09-25T09:33:50.439Z,1.00
2018-09-25T09:36:24.313Z,0.77
2018-09-25T09:38:58.255Z,0.83
2018-09-25T09:41:32.259Z,0.97
2018-09-25T09:44:06.184Z,1.00
2018-09-25T09:46:39.991Z,0.50
2018-09-25T09:49:13.897Z,0.70
2018-09-25T09:51:48.133Z,0.70
2018-09-25T09:54:22.013Z,0.60
2018-09-25T09:56:55.892Z,0.80
2018-09-25T09:59:29.793Z,1.37
2018-09-25T10:02:04.148Z,0.87
2018-09-25T10:04:38.076Z,0.97
2018-09-25T10:07:12.092Z,0.70
2018-09-25T10:09:46.011Z,0.83
2018-09-25T10:12:19.819Z,0.70
2018-09-25T10:14:53.873Z,0.87
2018-09-25T10:17:27.774Z,0.60
2018-09-25T10:20:01.628Z,0.43
2018-09-25T10:22:35.548Z,0.50
2018-09-25T10:25:09.349Z,0.40
2018-09-25T10:27:43.308Z,0.73
2018-09-25T10:30:17.364Z,0.80
2018-09-25T10:32:51.480Z,0.87
2018-09-25T10:35:25.314Z,0.83
2018-09-25T10:37:59.442Z,0.70
2018-09-25T10:40:33.356Z,0.70
2018-09-25T10:43:07.273Z,0.80
2018-09-25T10:45:41.166Z,1.07
2018-09-25T10:48:15.289Z,0.67
2018-09-25T10:50:49.376Z,1.10
2018-09-25T10:53:24.056Z,0.70
2018-09-25T10:55:57.952Z,1.27
2018-09-25T10:58:31.765Z,1.27
2018-09-25T11:01:06.187Z,0.40
2018-09-25T11:03:40.306Z,1.00
2018-09-25T11:06:15.133Z,1.10
2018-09-25T11:08:49.239Z,0.80
2018-09-25T11:11:23.477Z,0.60
2018-09-25T11:13:57.717Z,0.83
2018-09-25T11:16:31.642Z,0.80
2018-09-25T11:19:05.649Z,0.50
2018-09-25T11:21:39.568Z,0.80
2018-09-25T11:24:13.451Z,0.60
2018-09-25T11:26:47.318Z,0.50
2018-09-25T11:29:21.423Z,0.70
2018-09-25T11:31:55.594Z,0.77
2018-09-25T11:34:29.404Z,0.90
2018-09-25T11:37:03.447Z,0.60
2018-09-25T11:39:37.876Z,1.00
2018-09-25T11:42:11.839Z,0.87
2018-09-25T11:44:46.049Z,0.73
2018-09-25T11:47:19.991Z,0.80
2018-09-25T11:49:53.900Z,0.50
2018-09-25T11:52:28.045Z,0.63
2018-09-25T11:55:02.319Z,0.80
2018-09-25T11:57:36.206Z,0.60
2018-09-25T12:00:10.089Z,0.70
2018-09-25T12:02:44.190Z,0.57
2018-09-25T12:05:18.201Z,1.17
2018-09-25T12:07:52.402Z,1.10
2018-09-25T12:10:26.654Z,2.70
2018-09-25T12:13:00.951Z,1.13
2018-09-25T12:15:34.850Z,1.17
2018-09-25T12:18:08.863Z,0.80
2018-09-25T12:20:43.108Z,1.00
2018-09-25T12:23:17.142Z,0.80
2018-09-25T12:25:50.971Z,4.23
2018-09-25T12:28:25.677Z,3.97
2018-09-25T12:30:59.541Z,3.87
2018-09-25T12:33:33.960Z,0.70
2018-09-25T12:36:07.887Z,0.50
2018-09-25T12:38:41.944Z,1.30
2018-09-25T12:41:15.877Z,0.93
2018-09-25T12:43:49.842Z,1.70
2018-09-25T12:46:24.203Z,1.10
2018-09-25T12:48:58.101Z,0.63
2018-09-25T12:51:32.034Z,0.67
2018-09-25T12:54:05.894Z,0.70
2018-09-25T12:56:40.098Z,1.00
2018-09-25T12:59:14.501Z,1.10
2018-09-25T13:01:48.771Z,0.90
2018-09-25T13:04:22.644Z,0.40
2018-09-25T13:06:56.856Z,1.00
2018-09-25T13:09:31.681Z,1.30
2018-09-25T13:12:05.755Z,1.00
2018-09-25T13:14:39.894Z,0.90
2018-09-25T13:17:13.825Z,0.60
2018-09-25T13:19:47.724Z,0.60
2018-09-25T13:22:21.885Z,0.67
2018-09-25T13:24:55.639Z,0.53
2018-09-25T13:27:29.588Z,1.17
2018-09-25T13:30:03.485Z,0.80
2018-09-25T13:32:37.278Z,1.10
2018-09-25T13:35:11.510Z,0.83
2018-09-25T13:37:45.909Z,0.60
2018-09-25T13:40:20.504Z,0.90
2018-09-25T13:42:54.651Z,0.80
2018-09-25T13:45:28.558Z,0.70
2018-09-25T13:48:02.684Z,1.00
2018-09-25T13:50:37.078Z,0.70
2018-09-25T13:53:10.942Z,0.70
2018-09-25T13:55:44.882Z,0.70
2018-09-25T13:58:19.282Z,0.67
2018-09-25T14:00:53.194Z,0.70
2018-09-25T14:03:27.122Z,0.70
2018-09-25T14:06:01.399Z,1.20
2018-09-25T14:08:35.525Z,1.20
2018-09-25T14:11:09.524Z,1.13
2018-09-25T14:13:44.327Z,0.53
2018-09-25T14:16:18.269Z,1.83
2018-09-25T14:18:52.483Z,0.83
2018-09-25T14:21:26.331Z,0.60
2018-09-25T14:24:00.244Z,0.80
2018-09-25T14:26:34.139Z,0.87
2018-09-25T14:29:08.222Z,0.60
2018-09-25T14:31:42.182Z,0.87
2018-09-25T14:34:16.009Z,0.73
2018-09-25T14:36:50.074Z,0.80
2018-09-25T14:39:24.251Z,0.60
2018-09-25T14:41:58.520Z,1.13
2018-09-25T14:44:32.457Z,1.50
2018-09-25T14:47:06.548Z,0.70
2018-09-25T14:49:40.650Z,0.70
2018-09-25T14:52:15.248Z,0.70
2018-09-25T14:54:49.127Z,0.70
2018-09-25T14:57:22.978Z,0.83
2018-09-25T14:59:57.345Z,0.70
2018-09-25T15:02:31.275Z,0.70
2018-09-25T15:05:05.537Z,0.77
2018-09-25T15:07:39.427Z,0.93
2018-09-25T15:10:13.322Z,0.53
2018-09-25T15:12:47.209Z,0.90
2018-09-25T15:15:21.486Z,0.70
2018-09-25T15:17:55.759Z,0.80
2018-09-25T15:20:30.100Z,0.70
2018-09-25T15:23:05.143Z,0.80
2018-09-25T15:25:39.208Z,0.73
2018-09-25T15:28:13.310Z,0.50
2018-09-25T15:30:47.236Z,0.57
2018-09-25T15:33:21.188Z,0.60
2018-09-25T15:35:55.243Z,0.80
2018-09-25T15:38:29.168Z,1.07
2018-09-25T15:41:03.116Z,0.70
2018-09-25T15:43:36.909Z,0.90
2018-09-25T15:46:10.968Z,0.40
2018-09-25T15:48:44.827Z,0.50
2018-09-25T15:51:18.712Z,0.80
2018-09-25T15:53:52.884Z,0.90
2018-09-25T15:56:26.799Z,2.43
2018-09-25T15:59:00.907Z,4.43
2018-09-25T16:01:34.907Z,2.93
2018-09-25T16:04:08.856Z,2.40
2018-09-25T16:06:42.600Z,4.40
2018-09-25T16:09:16.486Z,6.20
2018-09-25T16:11:50.443Z,3.10
2018-09-25T16:14:24.352Z,2.87
2018-09-25T16:16:58.374Z,1.53
2018-09-25T16:19:32.239Z,1.00
2018-09-25T16:22:07.660Z,1.50
2018-09-25T16:24:41.637Z,0.83
2018-09-25T16:27:15.890Z,1.30
2018-09-25T16:29:49.847Z,0.90
2018-09-25T16:32:24.070Z,2.30
2018-09-25T16:34:58.400Z,2.50
2018-09-25T16:37:32.604Z,5.20
2018-09-25T16:40:07.378Z,4.67
2018-09-25T16:42:41.546Z,3.37
2018-09-25T16:45:15.327Z,2.50
2018-09-25T16:47:49.259Z,1.63
2018-09-25T16:50:23.185Z,0.93
2018-09-25T16:52:57.150Z,1.93
2018-09-25T16:55:31.934Z,1.30
2018-09-25T16:58:06.164Z,1.10
2018-09-25T17:00:40.773Z,0.80
2018-09-25T17:03:14.636Z,0.97
2018-09-25T17:05:48.615Z,0.73
2018-09-25T17:08:23.207Z,0.70
2018-09-25T17:10:57.068Z,1.30
2018-09-25T17:13:31.109Z,0.70
2018-09-25T17:16:05.239Z,0.90
2018-09-25T17:18:39.102Z,0.70
2018-09-25T17:21:13.342Z,0.80
2018-09-25T17:23:47.210Z,1.03
2018-09-25T17:26:21.392Z,0.50
2018-09-25T17:28:55.354Z,0.60
2018-09-25T17:31:29.266Z,1.43
2018-09-25T17:34:03.152Z,0.70
2018-09-25T17:36:37.048Z,0.57
2018-09-25T17:39:13.887Z,0.70
2018-09-25T17:41:48.215Z,0.70
2018-09-25T17:44:22.339Z,1.13
2018-09-25T17:46:56.348Z,0.80
2018-09-25T17:49:30.738Z,1.00
2018-09-25T17:52:05.000Z,0.70
2018-09-25T17:54:39.211Z,0.70
2018-09-25T17:57:13.161Z,0.70
2018-09-25T17:59:47.126Z,0.60
2018-09-25T18:02:20.995Z,0.70
2018-09-25T18:04:55.142Z,0.80
2018-09-25T18:07:29.113Z,0.57
2018-09-25T18:10:03.121Z,1.40
2018-09-25T18:12:37.044Z,0.67
2018-09-25T18:15:11.223Z,0.53
2018-09-25T18:17:45.629Z,0.87
2018-09-25T18:20:21.387Z,1.00
2018-09-25T18:22:55.128Z,1.20
2018-09-25T18:25:29.369Z,0.90
2018-09-25T18:28:03.393Z,0.80
2018-09-25T18:30:37.300Z,1.63
2018-09-25T18:33:11.607Z,1.57
2018-09-25T18:35:45.424Z,0.90
2018-09-25T18:38:19.307Z,0.80
2018-09-25T18:41:00.308Z,1.20
2018-09-25T18:43:34.258Z,1.10
2018-09-25T18:46:09.169Z,1.20
2018-09-25T18:48:43.332Z,1.90
2018-09-25T18:51:18.183Z,1.10
2018-09-25T18:53:52.087Z,1.53
2018-09-25T18:56:25.932Z,1.13
2018-09-25T18:59:00.191Z,1.53
2018-09-25T19:01:34.119Z,1.47
2018-09-25T19:04:08.484Z,1.60
2018-09-25T19:06:42.328Z,1.77
2018-09-25T19:09:16.999Z,1.87
2018-09-25T19:11:51.610Z,1.63
2018-09-25T19:14:25.731Z,1.43
2018-09-25T19:17:00.713Z,1.60
2018-09-25T19:19:34.497Z,1.40
2018-09-25T19:22:08.547Z,2.00
2018-09-25T19:24:42.739Z,1.73
2018-09-25T19:27:17.019Z,1.33
2018-09-25T19:29:51.197Z,2.20
2018-09-25T19:32:25.162Z,1.43
2018-09-25T19:34:59.296Z,2.20
2018-09-25T19:37:33.602Z,1.90
2018-09-25T19:40:07.997Z,2.30
2018-09-25T19:42:41.786Z,2.07
2018-09-25T19:45:15.721Z,2.03
2018-09-25T19:47:50.068Z,1.90
2018-09-25T19:50:24.304Z,1.63
2018-09-25T19:52:58.424Z,2.00
2018-09-25T19:55:32.195Z,1.77
2018-09-25T19:58:05.990Z,1.77
2018-09-25T20:00:40.492Z,1.83
2018-09-25T20:03:14.548Z,1.90
2018-09-25T20:05:48.761Z,1.53
2018-09-25T20:08:22.923Z,1.93
2018-09-25T20:10:57.514Z,1.60
2018-09-25T20:13:31.358Z,1.53
2018-09-25T20:16:05.273Z,1.60
2018-09-25T20:18:39.212Z,1.73
2018-09-25T20:21:12.941Z,2.00
2018-09-25T20:23:46.818Z,1.50
2018-09-25T20:26:20.734Z,2.00
2018-09-25T20:28:54.969Z,2.07
2018-09-25T20:31:28.820Z,1.97
2018-09-25T20:34:03.345Z,2.13
2018-09-25T20:36:37.335Z,1.43
2018-09-25T20:39:11.927Z,1.70
2018-09-25T20:41:46.174Z,1.90
2018-09-25T20:44:20.731Z,2.10
2018-09-25T20:46:54.695Z,1.70
2018-09-25T20:49:28.602Z,2.90
2018-09-25T20:52:02.529Z,3.57
2018-09-25T20:54:36.958Z,4.20
2018-09-25T20:57:11.244Z,4.37
2018-09-25T20:59:45.516Z,5.40
2018-09-25T21:02:19.731Z,4.10
2018-09-25T21:04:53.707Z,4.20
2018-09-25T21:07:28.874Z,4.43
2018-09-25T21:10:04.396Z,3.90
2018-09-25T21:12:40.413Z,3.47
2018-09-25T21:15:16.168Z,3.50
2018-09-25T21:17:53.383Z,3.50
2018-09-25T21:20:29.318Z,3.80
2018-09-25T21:23:05.077Z,2.67
2018-09-25T21:32:51.226Z,2.60
2018-09-25T21:35:25.425Z,2.57
2018-09-25T21:37:59.541Z,2.80
2018-09-25T21:40:33.426Z,2.77
2018-09-25T21:43:07.497Z,2.73
2018-09-25T21:45:41.400Z,2.53
2018-09-25T21:48:15.613Z,2.30
2018-09-25T21:50:51.601Z,2.43
2018-09-25T21:53:26.324Z,2.67
2018-09-25T21:56:00.223Z,2.97
2018-09-25T21:58:34.247Z,2.33
2018-09-25T22:01:08.737Z,3.93
2018-09-25T22:03:43.354Z,2.43
2018-09-25T22:06:17.390Z,2.13
2018-09-25T22:08:51.447Z,2.10
2018-09-25T22:11:25.362Z,2.20
2018-09-25T22:13:59.239Z,2.70
2018-09-25T22:16:33.160Z,2.90
2018-09-25T22:19:07.017Z,2.47
2018-09-25T22:21:40.986Z,2.40
2018-09-25T22:24:14.969Z,2.67
2018-09-25T22:26:48.958Z,2.87
2018-09-25T22:29:22.930Z,2.73
2018-09-25T22:31:57.170Z,2.37
2018-09-25T22:34:31.174Z,2.60
2018-09-25T22:37:05.100Z,2.50
2018-09-25T22:39:38.922Z,2.77
2018-09-25T22:42:12.862Z,2.67
2018-09-25T22:44:46.801Z,2.53
2018-09-25T22:47:21.059Z,2.77
2018-09-25T22:49:54.996Z,3.70
2018-09-25T22:52:28.897Z,3.60
2018-09-25T22:55:02.850Z,2.80
2018-09-25T22:57:36.733Z,3.43
2018-09-25T23:00:10.731Z,2.87
2018-09-25T23:02:44.938Z,3.10
2018-09-25T23:05:19.288Z,2.80
2018-09-25T23:07:53.500Z,3.20
2018-09-25T23:10:27.626Z,3.30
2018-09-25T23:13:01.702Z,2.73
2018-09-25T23:15:35.612Z,3.10
2018-09-25T23:18:09.520Z,2.77
2018-09-25T23:20:43.881Z,3.30
2018-09-25T23:23:18.143Z,3.30
2018-09-25T23:25:52.359Z,3.07
2018-09-25T23:28:26.278Z,2.90
2018-09-25T23:31:00.509Z,2.23
2018-09-25T23:33:34.481Z,2.97
2018-09-25T23:36:08.752Z,3.40
2018-09-25T23:38:42.566Z,3.80
2018-09-25T23:41:16.451Z,3.53
2018-09-25T23:43:47.346Z,3.10
2018-09-25T23:46:23.487Z,3.10
2018-09-25T23:49:04.546Z,3.37
2018-09-25T23:51:39.050Z,3.30
2018-09-25T23:54:20.524Z,3.30
2018-09-25T23:56:54.256Z,3.30
2018-09-25T23:59:31.311Z,2.67
